Time;durP1;ratioP1;P1;durP2;ratioP2;P2;SDS_P1;SDS_P2;PMS_P1;PMS_P2;Temp;Humidity;BMP_temperature;BMP_pressure;BME280_temperature;BME280_humidity;BME280_pressure;Samples;Min_cycle;Max_cycle;Signal;HPM_P1;HPM_P2
2022/07/15 00:02:08;;;;;;;6.32;0.93;;;;;;;-141.50;100.00;63355.56;5058341;28;20053;-79
2022/07/15 00:04:36;;;;;;;2.33;0.82;;;;;;;-141.50;100.00;63355.56;5060095;28;20055;-79
2022/07/15 00:07:03;;;;;;;6.25;1.48;;;;;;;-141.50;100.00;63355.56;5060094;28;20501;-80
2022/07/15 00:12:16;;;;;;;4.32;0.90;;;;;;;-141.50;100.00;63355.56;5059213;28;20059;-80
2022/07/15 00:14:42;;;;;;;7.75;0.95;;;;;;;-141.50;100.00;63355.56;5059082;28;20131;-78
2022/07/15 00:17:10;;;;;;;5.80;1.25;;;;;;;-141.50;100.00;63355.56;5058854;28;20052;-81
2022/07/15 00:19:36;;;;;;;1.80;0.80;;;;;;;-141.50;100.00;63355.56;5040983;28;20131;-81
2022/07/15 00:22:03;;;;;;;8.05;0.88;;;;;;;-141.50;100.00;63355.56;5057111;28;20049;-81
2022/07/15 00:24:30;;;;;;;2.55;0.73;;;;;;;-141.50;100.00;63355.56;5056768;28;20079;-81
2022/07/15 00:26:56;;;;;;;4.93;1.05;;;;;;;-141.50;100.00;63355.56;5058157;28;20428;-78
2022/07/15 00:29:23;;;;;;;2.67;0.90;;;;;;;-141.50;100.00;63355.56;5059050;28;20094;-80
2022/07/15 00:31:50;;;;;;;3.92;0.90;;;;;;;-141.50;100.00;63355.56;5041283;28;20502;-80
2022/07/15 00:34:17;;;;;;;4.47;0.90;;;;;;;-141.50;100.00;63355.56;5059843;28;20131;-79
2022/07/15 00:36:44;;;;;;;3.63;0.80;;;;;;;-141.50;100.00;63355.56;5061096;28;20059;-81
2022/07/15 00:39:10;;;;;;;4.13;0.93;;;;;;;-141.50;100.00;63355.56;5041142;28;20564;-81
2022/07/15 00:41:38;;;;;;;5.55;0.90;;;;;;;-141.50;100.00;63355.56;5054002;28;20294;-80
2022/07/15 00:44:05;;;;;;;3.17;1.00;;;;;;;-141.50;100.00;63355.56;5062721;28;20071;-80
2022/07/15 00:46:32;;;;;;;5.10;1.25;;;;;;;-141.50;100.00;63355.56;5063715;28;20053;-80
2022/07/15 00:49:02;;;;;;;6.43;1.02;;;;;;;-141.50;100.00;63355.56;5062007;28;20041;-80
2022/07/15 00:51:35;;;;;;;5.38;1.00;;;;;;;-141.50;100.00;63355.56;5061662;28;20067;-81
2022/07/15 00:54:05;;;;;;;10.68;1.02;;;;;;;-141.50;100.00;63355.56;5061990;28;20057;-81
2022/07/15 00:56:37;;;;;;;5.68;1.08;;;;;;;-141.50;100.00;63355.56;5045650;28;20045;-81
2022/07/15 00:59:05;;;;;;;3.40;0.90;;;;;;;-141.50;100.00;63355.56;5062864;28;20045;-80
2022/07/15 01:01:35;;;;;;;5.88;0.93;;;;;;;-141.50;100.00;63355.56;5060834;28;20521;-81
2022/07/15 01:04:04;;;;;;;4.07;0.90;;;;;;;-141.50;100.00;63355.56;5059340;28;20049;-80
2022/07/15 01:06:31;;;;;;;5.32;0.90;;;;;;;-141.50;100.00;63355.56;5044025;28;20057;-80
2022/07/15 01:08:58;;;;;;;8.07;0.90;;;;;;;-141.50;100.00;63355.56;5053139;28;20063;-81
2022/07/15 01:11:26;;;;;;;10.15;1.00;;;;;;;-141.50;100.00;63355.56;5072362;28;20060;-80
2022/07/15 01:13:54;;;;;;;3.42;1.20;;;;;;;-141.50;100.00;63355.56;5068119;28;20041;-80
2022/07/15 01:16:21;;;;;;;8.63;1.20;;;;;;;-141.50;100.00;63355.56;5060844;28;20114;-80
2022/07/15 01:18:48;;;;;;;2.05;0.90;;;;;;;-141.50;100.00;63355.56;5060524;28;20057;-80
2022/07/15 01:21:14;;;;;;;8.38;1.40;;;;;;;-141.50;100.00;63355.56;5059094;28;20045;-80
2022/07/15 01:23:42;;;;;;;4.72;1.13;;;;;;;-141.50;100.00;63355.56;5057189;28;20134;-80
2022/07/15 01:26:11;;;;;;;5.68;1.10;;;;;;;-141.50;100.00;63355.56;5056241;28;20045;-80
2022/07/15 01:28:38;;;;;;;4.05;1.05;;;;;;;-141.50;100.00;63355.56;5040410;28;20128;-80
2022/07/15 01:31:05;;;;;;;6.03;1.23;;;;;;;-141.50;100.00;63355.56;5055778;28;20045;-80
2022/07/15 01:33:32;;;;;;;4.10;1.15;;;;;;;-141.50;100.00;63355.56;5056493;28;20060;-80
2022/07/15 01:36:00;;;;;;;5.63;1.00;;;;;;;-141.50;100.00;63355.56;5061158;28;20522;-80
2022/07/15 01:38:28;;;;;;;3.83;1.25;;;;;;;-141.50;100.00;63355.56;5058647;28;20060;-80
2022/07/15 01:40:55;;;;;;;2.55;1.25;;;;;;;-141.50;100.00;63355.56;5052326;28;20521;-79
2022/07/15 01:43:22;;;;;;;5.68;1.35;;;;;;;-141.50;100.00;63355.56;5040870;28;20110;-80
2022/07/15 01:45:49;;;;;;;6.22;1.17;;;;;;;-141.50;100.00;63355.56;5040744;28;20058;-80
2022/07/15 01:51:02;;;;;;;8.80;1.48;;;;;;;-141.50;100.00;63355.56;5040902;28;20072;-81
2022/07/15 01:53:30;;;;;;;5.22;1.15;;;;;;;-141.50;100.00;63355.56;5038758;28;20049;-81
2022/07/15 01:55:56;;;;;;;4.85;1.17;;;;;;;-141.50;100.00;63355.56;5040031;28;20049;-80
2022/07/15 01:58:23;;;;;;;5.20;1.35;;;;;;;-141.50;100.00;63355.56;5024445;28;20050;-81
2022/07/15 02:00:50;;;;;;;7.13;1.27;;;;;;;-141.50;100.00;63355.56;5040003;28;20057;-80
2022/07/15 02:03:16;;;;;;;2.67;1.10;;;;;;;-141.50;100.00;63355.56;5042245;28;20191;-79
2022/07/15 02:05:43;;;;;;;4.50;1.40;;;;;;;-141.50;100.00;63355.56;5042010;28;20107;-80
2022/07/15 02:08:09;;;;;;;2.95;1.00;;;;;;;-141.50;100.00;63355.56;5034656;28;20045;-81
2022/07/15 02:10:41;;;;;;;7.53;1.35;;;;;;;-141.50;100.00;63355.56;5033851;28;20084;-79
2022/07/15 02:13:10;;;;;;;6.13;1.27;;;;;;;-141.50;100.00;63355.56;5036706;28;20568;-79
2022/07/15 02:15:38;;;;;;;6.97;1.45;;;;;;;-141.50;100.00;63355.56;5054471;28;20053;-81
2022/07/15 02:18:06;;;;;;;4.25;1.10;;;;;;;-141.50;100.00;63355.56;5056775;28;20056;-80
2022/07/15 02:20:34;;;;;;;8.35;1.90;;;;;;;-141.50;100.00;63355.56;5055876;28;20053;-78
2022/07/15 02:23:01;;;;;;;5.03;1.40;;;;;;;-141.50;100.00;63355.56;5055036;28;20076;-80
2022/07/15 02:25:30;;;;;;;3.78;1.20;;;;;;;-141.50;100.00;63355.56;5035131;28;20107;-80
2022/07/15 02:28:02;;;;;;;9.23;1.60;;;;;;;-141.50;100.00;63355.56;5057486;28;20049;-80
2022/07/15 02:30:34;;;;;;;4.07;1.20;;;;;;;-141.50;100.00;63355.56;5057668;28;20052;-78
2022/07/15 02:33:03;;;;;;;3.67;1.15;;;;;;;-141.50;100.00;63355.56;5054857;28;20049;-80
2022/07/15 02:35:30;;;;;;;7.30;1.30;;;;;;;-141.50;100.00;63355.56;5054886;28;20072;-81
2022/07/15 02:37:59;;;;;;;4.70;1.50;;;;;;;-141.50;100.00;63355.56;5055223;28;20102;-80
2022/07/15 02:40:26;;;;;;;2.95;1.10;;;;;;;-141.50;100.00;63355.56;5061374;28;20060;-80
2022/07/15 02:42:55;;;;;;;4.80;1.35;;;;;;;-141.50;100.00;63355.56;5071895;28;20045;-80
2022/07/15 02:45:24;;;;;;;7.10;1.15;;;;;;;-141.50;100.00;63355.56;5072566;28;20094;-80
2022/07/15 02:47:51;;;;;;;4.28;1.33;;;;;;;-141.50;100.00;63355.56;5072089;28;20087;-79
2022/07/15 02:50:18;;;;;;;4.13;1.45;;;;;;;-141.50;100.00;63355.56;5065726;28;20067;-80
2022/07/15 02:52:45;;;;;;;4.82;1.10;;;;;;;-141.50;100.00;63355.56;5059865;28;20064;-79
2022/07/15 02:55:12;;;;;;;5.95;1.45;;;;;;;-141.50;100.00;63355.56;5055381;28;20033;-81
2022/07/15 02:57:39;;;;;;;8.32;1.48;;;;;;;-141.50;100.00;63355.56;5058083;28;20033;-80
2022/07/15 03:00:09;;;;;;;3.58;1.50;;;;;;;-141.50;100.00;63355.56;5074837;28;20071;-82
2022/07/15 03:02:36;;;;;;;2.83;1.30;;;;;;;-141.50;100.00;63355.56;5056591;28;20052;-80
2022/07/15 03:05:03;;;;;;;6.35;1.52;;;;;;;-141.50;100.00;63355.56;5060859;28;20112;-80
2022/07/15 03:07:29;;;;;;;7.38;1.50;;;;;;;-141.50;100.00;63355.56;5067606;28;20052;-80
2022/07/15 03:09:57;;;;;;;4.10;1.25;;;;;;;-141.50;100.00;63355.56;5061647;28;20501;-80
2022/07/15 03:12:24;;;;;;;2.65;1.27;;;;;;;-141.50;100.00;63355.56;5059771;28;20045;-81
2022/07/15 03:14:51;;;;;;;6.88;1.63;;;;;;;-141.50;100.00;63355.56;5059773;28;20136;-80
2022/07/15 03:17:18;;;;;;;4.43;1.38;;;;;;;-141.50;100.00;63355.56;5060906;28;20092;-80
2022/07/15 03:19:45;;;;;;;9.40;2.63;;;;;;;-141.50;100.00;63355.56;5062345;28;20067;-80
2022/07/15 03:22:11;;;;;;;8.43;1.77;;;;;;;-141.50;100.00;63355.56;5061761;28;20049;-79
2022/07/15 03:24:38;;;;;;;9.70;1.30;;;;;;;-141.50;100.00;63355.56;5052763;28;20083;-79
2022/07/15 03:27:05;;;;;;;2.75;1.17;;;;;;;-141.50;100.00;63355.56;5054548;28;20122;-78
2022/07/15 03:29:31;;;;;;;6.13;1.95;;;;;;;-141.50;100.00;63355.56;5053761;28;20049;-78
2022/07/15 03:31:58;;;;;;;2.95;1.50;;;;;;;-141.50;100.00;63355.56;5068300;28;20033;-81
2022/07/15 03:34:25;;;;;;;7.43;1.95;;;;;;;-141.50;100.00;63355.56;5072353;28;20033;-81
2022/07/15 03:36:52;;;;;;;5.32;1.30;;;;;;;-141.50;100.00;63355.56;5074451;28;20519;-80
2022/07/15 03:39:19;;;;;;;3.30;1.20;;;;;;;-141.50;100.00;63355.56;5071333;28;20098;-83
2022/07/15 03:41:46;;;;;;;7.50;1.50;;;;;;;-141.50;100.00;63355.56;5065690;28;20060;-81
2022/07/15 03:44:14;;;;;;;8.32;1.55;;;;;;;-141.50;100.00;63355.56;5074227;28;20045;-82
2022/07/15 03:46:40;;;;;;;3.22;1.20;;;;;;;-141.50;100.00;63355.56;5057184;28;20033;-82
2022/07/15 03:49:07;;;;;;;3.60;1.27;;;;;;;-141.50;100.00;63355.56;5074379;28;20048;-80
2022/07/15 03:51:33;;;;;;;5.60;1.45;;;;;;;-141.50;100.00;63355.56;5074216;28;20045;-81
2022/07/15 03:54:02;;;;;;;4.63;1.33;;;;;;;-141.50;100.00;63355.56;5056563;28;20093;-81
2022/07/15 03:56:30;;;;;;;8.82;1.58;;;;;;;-141.50;100.00;63355.56;5071124;28;20041;-82
2022/07/15 03:58:57;;;;;;;3.53;1.33;;;;;;;-141.50;100.00;63355.56;5070470;28;20132;-80
2022/07/15 04:01:23;;;;;;;4.65;1.35;;;;;;;-141.50;100.00;63355.56;5070459;28;20040;-81
2022/07/15 04:03:51;;;;;;;4.40;1.60;;;;;;;-141.50;100.00;63355.56;5055825;28;20049;-80
2022/07/15 04:06:20;;;;;;;4.60;1.25;;;;;;;-141.50;100.00;63355.56;5071391;28;20040;-81
2022/07/15 04:08:47;;;;;;;4.95;1.30;;;;;;;-141.50;100.00;63355.56;5070832;28;20056;-81
2022/07/15 04:11:14;;;;;;;12.30;1.88;;;;;;;-141.50;100.00;63355.56;5072619;28;20051;-81
2022/07/15 04:13:42;;;;;;;5.75;1.55;;;;;;;-141.50;100.00;63355.56;5073018;28;20033;-81
2022/07/15 04:16:11;;;;;;;4.63;1.58;;;;;;;-141.50;100.00;63355.56;5069605;28;20105;-82
2022/07/15 04:18:38;;;;;;;4.15;1.33;;;;;;;-141.50;100.00;63355.56;5054227;28;20660;-79
2022/07/15 04:21:05;;;;;;;8.85;1.83;;;;;;;-141.50;100.00;63355.56;5036961;28;20052;-80
2022/07/15 04:23:32;;;;;;;8.50;1.70;;;;;;;-141.50;100.00;63355.56;5052292;28;20049;-79
2022/07/15 04:25:58;;;;;;;5.60;1.77;;;;;;;-141.50;100.00;63355.56;5053734;28;20812;-79
2022/07/15 04:28:26;;;;;;;9.30;1.60;;;;;;;-141.50;100.00;63355.56;5054156;28;20103;-80
2022/07/15 04:30:53;;;;;;;9.23;1.73;;;;;;;-141.50;100.00;63355.56;5053626;28;20049;-79
2022/07/15 04:33:20;;;;;;;7.60;1.60;;;;;;;-141.50;100.00;63355.56;5035885;28;20049;-78
2022/07/15 04:35:47;;;;;;;9.48;1.75;;;;;;;-141.50;100.00;63355.56;5061680;28;20095;-78
2022/07/15 04:38:14;;;;;;;7.38;1.60;;;;;;;-141.50;100.00;63355.56;5069827;28;20079;-76
2022/07/15 04:40:42;;;;;;;5.47;1.73;;;;;;;-141.50;100.00;63355.56;5052683;28;20113;-77
2022/07/15 04:43:11;;;;;;;6.30;1.67;;;;;;;-141.50;100.00;63355.56;5054195;28;20589;-77
2022/07/15 04:45:37;;;;;;;6.57;1.65;;;;;;;-141.50;100.00;63355.56;5032525;28;20103;-74
2022/07/15 04:50:45;;;;;;;9.23;1.88;;;;;;;-141.50;100.00;63355.56;5031294;28;20482;-75
2022/07/15 04:50:55;;;;;;;8.13;1.60;;;;;;;-141.50;100.00;63355.56;5047245;28;20194;-75
2022/07/15 04:53:22;;;;;;;8.15;1.90;;;;;;;-141.50;100.00;63355.56;5046967;28;20681;-75
2022/07/15 04:55:49;;;;;;;13.13;1.85;;;;;;;-141.50;100.00;63355.56;5047683;28;20107;-76
2022/07/15 04:58:16;;;;;;;8.32;1.70;;;;;;;-141.50;100.00;63355.56;5048953;28;20149;-76
2022/07/15 05:00:44;;;;;;;10.95;2.10;;;;;;;-141.50;100.00;63355.56;5047879;28;20045;-75
2022/07/15 05:03:11;;;;;;;11.77;1.92;;;;;;;-141.50;100.00;63355.56;5049473;28;20061;-76
2022/07/15 05:05:38;;;;;;;8.38;1.70;;;;;;;-141.50;100.00;63355.56;5048297;28;20060;-74
2022/07/15 05:08:05;;;;;;;9.13;1.95;;;;;;;-141.50;100.00;63355.56;5048732;28;20574;-75
2022/07/15 05:10:33;;;;;;;14.32;1.73;;;;;;;-141.50;100.00;63355.56;5045010;28;20085;-75
2022/07/15 05:13:02;;;;;;;13.80;2.10;;;;;;;-141.50;100.00;63355.56;5037698;28;20053;-76
2022/07/15 05:15:28;;;;;;;10.35;1.70;;;;;;;-141.50;100.00;63355.56;5039732;28;20520;-76
2022/07/15 05:17:55;;;;;;;7.78;1.73;;;;;;;-141.50;100.00;63355.56;5040574;28;20065;-76
2022/07/15 05:20:22;;;;;;;6.50;2.05;;;;;;;-141.50;100.00;63355.56;5022754;28;20077;-76
2022/07/15 05:22:49;;;;;;;8.75;1.70;;;;;;;-141.50;100.00;63355.56;5040615;28;20057;-75
2022/07/15 05:25:16;;;;;;;10.18;1.73;;;;;;;-141.50;100.00;63355.56;5044572;28;20111;-76
2022/07/15 05:27:42;;;;;;;14.73;2.20;;;;;;;-141.50;100.00;63355.56;5047343;28;20079;-75
2022/07/15 05:30:09;;;;;;;5.32;2.13;;;;;;;-141.50;100.00;63355.56;5042999;28;20537;-76
2022/07/15 05:32:36;;;;;;;11.50;2.25;;;;;;;-141.50;100.00;63355.56;5026644;28;21623;-75
2022/07/15 05:35:03;;;;;;;11.75;2.40;;;;;;;-141.50;100.00;63355.56;5035007;28;20438;-75
2022/07/15 05:37:29;;;;;;;11.07;1.67;;;;;;;-141.50;100.00;63355.56;5037978;28;20063;-78
2022/07/15 05:39:57;;;;;;;17.30;1.85;;;;;;;-141.50;100.00;63355.56;5030231;28;20054;-78
2022/07/15 05:42:24;;;;;;;4.82;1.60;;;;;;;-141.50;100.00;63355.56;5038887;28;20608;-78
2022/07/15 05:44:50;;;;;;;9.88;1.60;;;;;;;-141.50;100.00;63355.56;5015367;28;20080;-78
2022/07/15 05:47:20;;;;;;;6.47;1.90;;;;;;;-141.50;100.00;63355.56;5033965;28;20049;-78
2022/07/15 05:49:46;;;;;;;9.18;1.70;;;;;;;-141.50;100.00;63355.56;5042852;28;20131;-79
2022/07/15 05:52:13;;;;;;;8.93;1.70;;;;;;;-141.50;100.00;63355.56;5025149;28;20132;-79
2022/07/15 05:54:39;;;;;;;8.75;1.40;;;;;;;-141.50;100.00;63355.56;5026812;28;20437;-80
2022/07/15 05:57:06;;;;;;;8.32;1.65;;;;;;;-141.50;100.00;63355.56;5031094;28;20615;-81
2022/07/15 05:59:32;;;;;;;9.65;1.50;;;;;;;-141.50;100.00;63355.56;5049446;28;20077;-78
2022/07/15 06:01:59;;;;;;;8.02;1.77;;;;;;;-141.50;100.00;63355.56;5050784;28;20118;-80
2022/07/15 06:04:27;;;;;;;8.65;1.88;;;;;;;-141.50;100.00;63355.56;5045953;28;20049;-80
2022/07/15 06:06:54;;;;;;;5.63;1.65;;;;;;;-141.50;100.00;63355.56;5029615;28;20081;-80
2022/07/15 06:09:21;;;;;;;12.35;1.67;;;;;;;-141.50;100.00;63355.56;5039604;28;20057;-80
2022/07/15 06:11:48;;;;;;;5.50;1.38;;;;;;;-141.50;100.00;63355.56;5049062;28;20222;-80
2022/07/15 06:14:14;;;;;;;8.27;2.00;;;;;;;-141.50;100.00;63355.56;5050067;28;20057;-79
2022/07/15 06:16:41;;;;;;;8.00;1.77;;;;;;;-141.50;100.00;63355.56;5050036;28;20072;-80
2022/07/15 06:19:08;;;;;;;5.00;1.60;;;;;;;-141.50;100.00;63355.56;5043491;28;20435;-81
2022/07/15 06:21:35;;;;;;;7.68;1.60;;;;;;;-141.50;100.00;63355.56;5047694;28;20098;-80
2022/07/15 06:24:02;;;;;;;5.03;1.17;;;;;;;-141.50;100.00;63355.56;5051439;28;20115;-81
2022/07/15 06:26:29;;;;;;;6.53;1.50;;;;;;;-141.50;100.00;63355.56;5051767;28;20078;-79
2022/07/15 06:28:55;;;;;;;9.20;1.73;;;;;;;-141.50;100.00;63355.56;5053243;28;20049;-80
2022/07/15 06:31:22;;;;;;;10.82;1.50;;;;;;;-141.50;100.00;63355.56;5051860;28;20080;-80
2022/07/15 06:33:49;;;;;;;7.45;1.48;;;;;;;-141.50;100.00;63355.56;5039822;28;20061;-80
2022/07/15 06:36:15;;;;;;;6.30;1.48;;;;;;;-141.50;100.00;63355.56;5041041;28;20076;-79
2022/07/15 06:38:42;;;;;;;7.65;1.70;;;;;;;-141.50;100.00;63355.56;5047490;28;20118;-83
2022/07/15 06:41:08;;;;;;;10.48;1.60;;;;;;;-141.50;100.00;63355.56;5050950;28;20777;-80
2022/07/15 06:43:35;;;;;;;8.02;1.50;;;;;;;-141.50;100.00;63355.56;5056586;28;20098;-80
2022/07/15 06:46:01;;;;;;;6.28;1.30;;;;;;;-141.50;100.00;63355.56;5038661;28;20048;-80
2022/07/15 06:48:29;;;;;;;5.95;1.10;;;;;;;-141.50;100.00;63355.56;5055840;28;20136;-80
2022/07/15 06:50:55;;;;;;;6.03;1.15;;;;;;;-141.50;100.00;63355.56;5055007;28;20060;-80
2022/07/15 06:53:22;;;;;;;10.30;1.45;;;;;;;-141.50;100.00;63355.56;5051893;28;20083;-80
2022/07/15 06:55:48;;;;;;;6.57;1.52;;;;;;;-141.50;100.00;63355.56;5053234;28;20136;-80
2022/07/15 06:58:15;;;;;;;5.72;1.38;;;;;;;-141.50;100.00;63355.56;5054761;28;20113;-80
2022/07/15 07:00:41;;;;;;;14.77;1.70;;;;;;;-141.50;100.00;63355.56;5053032;28;20048;-79
2022/07/15 07:03:08;;;;;;;8.55;1.75;;;;;;;-141.50;100.00;63355.56;5039224;28;20057;-82
2022/07/15 07:05:34;;;;;;;7.72;1.50;;;;;;;-141.50;100.00;63355.56;5044060;28;20562;-80
2022/07/15 07:08:01;;;;;;;10.95;1.70;;;;;;;-141.50;100.00;63355.56;5055288;28;20053;-82
2022/07/15 07:10:28;;;;;;;6.32;1.10;;;;;;;-141.50;100.00;63355.56;5044625;28;20049;-81
2022/07/15 07:12:54;;;;;;;7.95;1.30;;;;;;;-141.50;100.00;63355.56;5034618;28;20577;-80
2022/07/15 07:15:23;;;;;;;9.60;1.10;;;;;;;-141.50;100.00;63355.56;5049385;28;20068;-79
2022/07/15 07:17:54;;;;;;;7.00;1.13;;;;;;;-141.50;100.00;63355.56;5040235;28;20460;-80
2022/07/15 07:20:21;;;;;;;7.80;1.20;;;;;;;-141.50;100.00;63355.56;5048690;28;20053;-80
2022/07/15 07:22:48;;;;;;;8.57;1.50;;;;;;;-141.50;100.00;63355.56;5035871;28;20425;-81
2022/07/15 07:25:14;;;;;;;12.55;1.40;;;;;;;-141.50;100.00;63355.56;5053760;28;20133;-80
2022/07/15 07:27:41;;;;;;;8.27;1.60;;;;;;;-141.50;100.00;63355.56;5038482;28;20061;-81
2022/07/15 07:30:08;;;;;;;5.13;1.40;;;;;;;-141.50;100.00;63355.56;5056526;28;20152;-80
2022/07/15 07:32:35;;;;;;;9.80;1.35;;;;;;;-141.50;100.00;63355.56;5054780;28;20060;-79
2022/07/15 07:35:06;;;;;;;4.35;1.33;;;;;;;-141.50;100.00;63355.56;5055603;28;20064;-81
2022/07/15 07:37:34;;;;;;;8.02;1.30;;;;;;;-141.50;100.00;63355.56;5054734;28;20063;-80
2022/07/15 07:40:01;;;;;;;6.80;1.50;;;;;;;-141.50;100.00;63355.56;5053150;28;20509;-81
2022/07/15 07:42:30;;;;;;;6.03;1.10;;;;;;;-141.50;100.00;63355.56;5052455;28;20106;-79
2022/07/15 07:44:58;;;;;;;3.85;1.00;;;;;;;-141.50;100.00;63355.56;5054256;28;20057;-81
2022/07/15 07:47:25;;;;;;;7.72;1.30;;;;;;;-141.50;100.00;63355.56;5054679;28;20143;-81
2022/07/15 07:49:51;;;;;;;4.00;0.95;;;;;;;-141.50;100.00;63355.56;5049022;28;20095;-80
2022/07/15 07:52:18;;;;;;;8.32;1.23;;;;;;;-141.50;100.00;63355.56;5035203;28;20052;-79
2022/07/15 07:54:52;;;;;;;8.48;1.10;;;;;;;-141.50;100.00;63355.56;5053238;28;20060;-82
2022/07/15 07:57:19;;;;;;;5.82;1.20;;;;;;;-141.50;100.00;63355.56;5050948;28;20603;-79
2022/07/15 07:59:45;;;;;;;6.35;0.88;;;;;;;-141.50;100.00;63355.56;5056829;28;20056;-78
2022/07/15 08:02:18;;;;;;;2.63;0.82;;;;;;;-141.50;100.00;63355.56;5075911;28;20067;-80
2022/07/15 08:04:45;;;;;;;6.65;1.10;;;;;;;-141.50;100.00;63355.56;5077552;28;20116;-80
2022/07/15 08:07:12;;;;;;;9.18;1.30;;;;;;;-141.50;100.00;63355.56;5055654;28;20079;-79
2022/07/15 08:09:38;;;;;;;4.65;1.27;;;;;;;-141.50;100.00;63355.56;5052583;28;20123;-79
2022/07/15 08:12:05;;;;;;;7.97;1.08;;;;;;;-141.50;100.00;63355.56;5035934;28;20083;-78
2022/07/15 08:14:32;;;;;;;3.60;0.80;;;;;;;-141.50;100.00;63355.56;5051681;28;20148;-78
2022/07/15 08:16:58;;;;;;;8.98;1.10;;;;;;;-141.50;100.00;63355.56;5051664;28;20099;-79
2022/07/15 08:19:26;;;;;;;10.63;1.23;;;;;;;-141.50;100.00;63355.56;5050230;28;20048;-79
2022/07/15 08:21:53;;;;;;;7.10;1.08;;;;;;;-141.50;100.00;63355.56;5049331;28;20540;-79
2022/07/15 08:24:19;;;;;;;8.40;1.20;;;;;;;-141.50;100.00;63355.56;5051394;28;20079;-79
2022/07/15 08:26:46;;;;;;;5.70;1.10;;;;;;;-141.50;100.00;63355.56;5032666;28;20513;-78
2022/07/15 08:29:12;;;;;;;4.63;0.95;;;;;;;-141.50;100.00;63355.56;5032731;28;20088;-80
2022/07/15 08:31:39;;;;;;;5.45;1.20;;;;;;;-141.50;100.00;63355.56;5043338;28;20098;-79
2022/07/15 08:34:08;;;;;;;5.13;1.17;;;;;;;-141.50;100.00;63355.56;5058520;28;20128;-80
2022/07/15 08:36:34;;;;;;;7.03;0.88;;;;;;;-141.50;100.00;63355.56;5038901;28;20084;-78
2022/07/15 08:39:01;;;;;;;5.75;1.10;;;;;;;-141.50;100.00;63355.56;5050105;28;20522;-81
2022/07/15 08:41:29;;;;;;;6.90;1.10;;;;;;;-141.50;100.00;63355.56;5023836;28;20477;-80
2022/07/15 08:43:55;;;;;;;7.43;0.95;;;;;;;-141.50;100.00;63355.56;5045084;28;20080;-81
2022/07/15 08:46:25;;;;;;;7.53;1.33;;;;;;;-141.50;100.00;63355.56;5061915;28;20048;-79
2022/07/15 08:48:57;;;;;;;4.25;0.93;;;;;;;-141.50;100.00;63355.56;5051878;28;20051;-80
2022/07/15 08:51:24;;;;;;;4.80;1.00;;;;;;;-141.50;100.00;63355.56;5051719;28;20511;-77
2022/07/15 08:53:52;;;;;;;6.35;1.02;;;;;;;-141.50;100.00;63355.56;5051983;28;20049;-80
2022/07/15 08:56:19;;;;;;;5.68;1.00;;;;;;;-141.50;100.00;63355.56;5052225;28;20472;-80
2022/07/15 08:58:47;;;;;;;8.10;1.15;;;;;;;-141.50;100.00;63355.56;5051175;28;20098;-80
2022/07/15 09:01:25;;;;;;;4.40;1.35;;;;;;;-141.50;100.00;63355.56;5050719;28;20102;-79
2022/07/15 09:03:52;;;;;;;4.13;1.10;;;;;;;-141.50;100.00;63355.56;5050383;28;20113;-79
2022/07/15 09:06:55;;;;;;;5.18;1.25;;;;;;;-141.50;100.00;63355.56;5046341;28;20632;-79
2022/07/15 09:09:37;;;;;;;9.38;1.38;;;;;;;-141.50;100.00;63355.56;5031148;28;20081;-79
2022/07/15 09:12:08;;;;;;;4.75;0.95;;;;;;;-141.50;100.00;63355.56;5033575;28;20092;-80
2022/07/15 09:14:42;;;;;;;4.85;1.42;;;;;;;-141.50;100.00;63355.56;5022996;28;20053;-81
2022/07/15 09:17:09;;;;;;;5.25;1.30;;;;;;;-141.50;100.00;63355.56;5050432;28;20191;-79
2022/07/15 09:19:55;;;;;;;6.13;1.17;;;;;;;-141.50;100.00;63355.56;5049961;28;20053;-79
2022/07/15 09:22:22;;;;;;;6.78;1.27;;;;;;;-141.50;100.00;63355.56;5022383;28;20081;-79
2022/07/15 09:25:03;;;;;;;7.75;1.20;;;;;;;-141.50;100.00;63355.56;5041367;28;20194;-80
2022/07/15 09:27:40;;;;;;;6.20;1.40;;;;;;;-141.50;100.00;63355.56;5052999;28;20049;-80
2022/07/15 09:36:11;;;;;;;5.03;1.30;;;;;;;-141.50;100.00;63355.56;5033676;28;20089;-79
2022/07/15 09:38:41;;;;;;;7.00;1.40;;;;;;;-141.50;100.00;63355.56;5042145;28;20098;-79
2022/07/15 09:41:12;;;;;;;4.22;1.30;;;;;;;-141.50;100.00;63355.56;5023815;28;20056;-81
2022/07/15 09:43:50;;;;;;;5.55;1.20;;;;;;;-141.50;100.00;63355.56;5051201;28;20088;-81
2022/07/15 09:46:19;;;;;;;4.40;1.10;;;;;;;-141.50;100.00;63355.56;5041734;28;20049;-81
2022/07/15 09:48:49;;;;;;;4.70;1.20;;;;;;;-141.50;100.00;63355.56;5042869;28;20464;-80
2022/07/15 09:51:16;;;;;;;8.13;1.13;;;;;;;-141.50;100.00;63355.56;5034156;28;20128;-80
2022/07/15 09:53:44;;;;;;;7.60;1.35;;;;;;;-141.50;100.00;63355.56;5045876;28;20110;-78
2022/07/15 09:56:21;;;;;;;4.90;1.20;;;;;;;-141.50;100.00;63355.56;5055032;28;20056;-80
2022/07/15 09:58:48;;;;;;;5.40;1.20;;;;;;;-141.50;100.00;63355.56;5052574;28;20043;-81
2022/07/15 10:01:15;;;;;;;6.07;1.40;;;;;;;-141.50;100.00;63355.56;5055230;28;20088;-78
2022/07/15 10:03:42;;;;;;;5.63;1.42;;;;;;;-141.50;100.00;63355.56;5045436;28;20055;-80
2022/07/15 10:06:13;;;;;;;4.78;1.10;;;;;;;-141.50;100.00;63355.56;5042935;28;20072;-79
2022/07/15 10:08:46;;;;;;;6.15;1.33;;;;;;;-141.50;100.00;63355.56;5052070;28;20049;-81
2022/07/15 10:11:13;;;;;;;5.90;1.23;;;;;;;-141.50;100.00;63355.56;5054133;28;20525;-80
2022/07/15 10:14:05;;;;;;;7.78;1.40;;;;;;;-141.50;100.00;63355.56;5056972;28;20084;-80
2022/07/15 10:16:56;;;;;;;4.82;1.15;;;;;;;-141.50;100.00;63355.56;5017332;28;20435;-82
2022/07/15 10:19:48;;;;;;;4.90;1.10;;;;;;;-141.50;100.00;63355.56;5038071;28;20063;-82
2022/07/15 10:22:30;;;;;;;3.92;1.17;;;;;;;-141.50;100.00;63355.56;5045695;28;20063;-80
2022/07/15 10:25:39;;;;;;;6.25;1.15;;;;;;;-141.50;100.00;63355.56;5043087;28;20049;-79
2022/07/15 10:28:09;;;;;;;4.00;1.27;;;;;;;-141.50;100.00;63355.56;4985248;28;20458;-80
2022/07/15 10:30:39;;;;;;;5.18;1.08;;;;;;;-141.50;100.00;63355.56;5053989;28;20111;-80
2022/07/15 10:33:18;;;;;;;8.50;1.50;;;;;;;-141.50;100.00;63355.56;5058166;28;20072;-80
2022/07/15 10:35:47;;;;;;;7.50;1.50;;;;;;;-141.50;100.00;63355.56;5062259;28;20108;-81
2022/07/15 10:38:37;;;;;;;6.07;1.40;;;;;;;-141.50;100.00;63355.56;5058389;28;20055;-81
2022/07/15 10:41:12;;;;;;;4.82;1.35;;;;;;;-141.50;100.00;63355.56;5038470;28;20060;-79
2022/07/15 10:43:44;;;;;;;5.18;1.42;;;;;;;-141.50;100.00;63355.56;5047703;28;20053;-81
2022/07/15 10:46:17;;;;;;;3.47;1.17;;;;;;;-141.50;100.00;63355.56;5054859;28;20065;-79
2022/07/15 10:48:49;;;;;;;6.60;1.50;;;;;;;-141.50;100.00;63355.56;5046279;28;20084;-80
2022/07/15 10:51:34;;;;;;;6.43;1.40;;;;;;;-141.50;100.00;63355.56;5053722;28;20064;-77
2022/07/15 10:54:31;;;;;;;7.37;1.30;;;;;;;-141.50;100.00;63355.56;5035622;28;20477;-78
2022/07/15 10:56:57;;;;;;;;;;;;;;;-141.50;100.00;63355.56;5055744;28;20156;-78
2022/07/15 10:59:24;;;;;;;5.57;1.60;;;;;;;-141.50;100.00;63355.56;5055562;28;20351;-79
2022/07/15 11:02:00;;;;;;;5.05;1.10;;;;;;;-141.50;100.00;63355.56;5036791;28;20045;-79
2022/07/15 11:04:33;;;;;;;3.20;1.08;;;;;;;-141.50;100.00;63355.56;5062380;28;20101;-80
2022/07/15 11:07:09;;;;;;;4.18;1.33;;;;;;;-141.50;100.00;63355.56;5073951;28;20049;-79
2022/07/15 11:09:56;;;;;;;8.85;1.10;;;;;;;-141.50;100.00;63355.56;5066986;28;20071;-79
2022/07/15 11:12:32;;;;;;;4.75;1.40;;;;;;;-141.50;100.00;63355.56;5058080;28;20124;-78
2022/07/15 11:14:58;;;;;;;5.90;1.50;;;;;;;-141.50;100.00;63355.56;5054998;28;20053;-79
2022/07/15 11:17:28;;;;;;;5.82;1.35;;;;;;;-141.50;100.00;63355.56;5038365;28;20057;-79
2022/07/15 11:19:57;;;;;;;6.38;1.40;;;;;;;-141.50;100.00;63355.56;5059648;28;20057;-79
2022/07/15 11:22:28;;;;;;;7.50;1.40;;;;;;;-141.50;100.00;63355.56;5075127;28;20063;-81
2022/07/15 11:24:56;;;;;;;5.35;1.40;;;;;;;-141.50;100.00;63355.56;5078783;28;20083;-79
2022/07/15 11:27:24;;;;;;;5.13;1.40;;;;;;;-141.50;100.00;63355.56;5074392;28;20406;-79
2022/07/15 11:29:59;;;;;;;5.07;1.30;;;;;;;-141.50;100.00;63355.56;5058438;28;20048;-78